Time;durP1;ratioP1;P1;durP2;ratioP2;P2;SDS_P1;SDS_P2;PMS_P1;PMS_P2;Temp;Humidity;BMP_temperature;BMP_pressure;BME280_temperature;BME280_humidity;BME280_pressure;Samples;Min_cycle;Max_cycle;Signal;HPM_P1;HPM_P2
2023/12/31 00:00:34;;;;;;;2.60;1.40;;;8.50;1.00;;;;;;6283594;22;20415;-86
2023/12/31 00:03:00;;;;;;;2.47;1.50;;;8.50;1.00;;;;;;6250720;22;20457;-87
2023/12/31 00:05:26;;;;;;;2.90;1.40;;;8.50;1.00;;;;;;6276486;22;20380;-86
2023/12/31 00:07:52;;;;;;;2.40;1.57;;;8.50;1.00;;;;;;6251653;22;20569;-86
2023/12/31 00:10:17;;;;;;;2.13;1.57;;;8.60;1.00;;;;;;6254131;22;20461;-86
2023/12/31 00:12:44;;;;;;;5.10;1.33;;;8.60;1.00;;;;;;6281095;22;20241;-86
2023/12/31 00:15:09;;;;;;;3.77;1.67;;;8.70;1.00;;;;;;6281009;22;20178;-87
2023/12/31 00:17:35;;;;;;;2.97;1.43;;;8.70;1.00;;;;;;6285024;22;20411;-87
2023/12/31 00:20:02;;;;;;;2.90;1.47;;;8.80;1.00;;;;;;6287558;22;20152;-86
2023/12/31 00:22:27;;;;;;;2.77;1.60;;;8.80;1.00;;;;;;6279486;22;20449;-87
2023/12/31 00:24:54;;;;;;;2.30;1.83;;;8.80;1.00;;;;;;6277305;22;20755;-84
2023/12/31 00:27:21;;;;;;;3.67;1.50;;;8.90;1.00;;;;;;6278834;22;20519;-87
2023/12/31 00:29:46;;;;;;;1.73;1.30;;;8.90;99.90;;;;;;6280493;22;20410;-86
2023/12/31 00:32:12;;;;;;;1.60;1.17;;;9.00;99.90;;;;;;6251344;22;20399;-86
2023/12/31 00:34:37;;;;;;;2.00;1.60;;;9.10;99.90;;;;;;6278798;22;20179;-85
2023/12/31 00:37:03;;;;;;;2.30;1.50;;;9.20;99.90;;;;;;6279394;22;20644;-85
2023/12/31 00:39:29;;;;;;;1.90;1.60;;;9.30;99.90;;;;;;6277262;22;20191;-85
2023/12/31 00:41:55;;;;;;;1.60;1.30;;;9.40;99.90;;;;;;6278962;22;20372;-84
2023/12/31 00:44:20;;;;;;;2.10;1.27;;;9.40;1.00;;;;;;6278423;22;20173;-88
2023/12/31 00:46:46;;;;;;;1.53;1.43;;;9.50;1.00;;;;;;6280702;22;20378;-85
2023/12/31 00:49:11;;;;;;;2.30;1.37;;;9.50;1.00;;;;;;6278659;22;20149;-85
2023/12/31 00:51:37;;;;;;;4.10;1.83;;;9.60;99.90;;;;;;6277126;22;20157;-86
2023/12/31 00:54:02;;;;;;;2.90;1.60;;;9.60;1.00;;;;;;6279798;22;20188;-84
2023/12/31 00:56:28;;;;;;;3.30;1.60;;;9.70;1.00;;;;;;6278083;22;20228;-85
2023/12/31 00:58:53;;;;;;;2.90;1.43;;;9.70;1.00;;;;;;6276598;22;20187;-84
2023/12/31 01:01:19;;;;;;;2.03;1.43;;;9.80;99.90;;;;;;6278999;22;20172;-85
2023/12/31 01:03:44;;;;;;;1.47;1.30;;;9.80;1.00;;;;;;6278702;22;20196;-85
2023/12/31 01:06:10;;;;;;;1.40;0.97;;;9.90;1.00;;;;;;6252025;22;20227;-85
2023/12/31 01:08:36;;;;;;;1.60;1.10;;;9.90;99.90;;;;;;6278416;22;20212;-85
2023/12/31 01:11:02;;;;;;;1.87;1.20;;;10.00;1.00;;;;;;6280299;22;20176;-85
2023/12/31 01:13:28;;;;;;;2.03;1.40;;;10.00;99.90;;;;;;6278795;22;20539;-84
2023/12/31 01:15:53;;;;;;;2.13;1.73;;;10.00;99.90;;;;;;6250193;22;20423;-85
2023/12/31 01:18:19;;;;;;;1.97;1.50;;;10.00;59.10;;;;;;6279784;22;20419;-85
2023/12/31 01:20:45;;;;;;;1.90;1.27;;;9.90;1.00;;;;;;6279242;22;20152;-85
2023/12/31 01:23:11;;;;;;;1.70;1.30;;;9.90;1.00;;;;;;6251330;22;20492;-84
2023/12/31 01:25:36;;;;;;;2.70;1.30;;;9.90;1.00;;;;;;6277035;22;20250;-88
2023/12/31 01:28:02;;;;;;;3.10;1.20;;;9.90;1.00;;;;;;6280260;22;20172;-85
2023/12/31 01:30:28;;;;;;;2.00;1.33;;;9.90;1.00;;;;;;6277779;22;20152;-85
2023/12/31 01:32:54;;;;;;;2.30;1.23;;;9.90;1.00;;;;;;6277078;22;20704;-85
2023/12/31 01:35:20;;;;;;;1.90;1.30;;;9.80;1.00;;;;;;6279622;22;20371;-85
2023/12/31 01:37:48;;;;;;;1.87;1.50;;;9.80;1.00;;;;;;6276860;22;20187;-86
2023/12/31 01:40:13;;;;;;;2.00;1.80;;;9.80;1.00;;;;;;6277757;22;20149;-85
2023/12/31 01:42:39;;;;;;;1.80;1.37;;;9.80;1.00;;;;;;6278274;22;20485;-87
2023/12/31 01:45:05;;;;;;;3.80;1.40;;;9.70;3.60;;;;;;6250838;22;20153;-85
2023/12/31 01:47:36;;;;;;;3.60;1.10;;;9.70;27.10;;;;;;6279568;22;20216;-86
2023/12/31 01:50:04;;;;;;;3.20;1.50;;;9.60;66.10;;;;;;6279348;22;20383;-86
2023/12/31 01:52:30;;;;;;;2.87;1.70;;;9.60;99.90;;;;;;6280073;22;20399;-87
2023/12/31 01:54:57;;;;;;;2.30;1.57;;;9.50;99.90;;;;;;6282573;22;20388;-86
2023/12/31 01:57:28;;;;;;;2.20;1.50;;;9.50;1.00;;;;;;6253631;22;20419;-85
2023/12/31 01:59:55;;;;;;;7.00;1.53;;;9.50;1.00;;;;;;6282290;22;20396;-86
2023/12/31 02:02:22;;;;;;;2.50;1.40;;;9.40;99.90;;;;;;6279134;22;20371;-84
2023/12/31 02:04:48;;;;;;;2.97;1.23;;;9.40;99.90;;;;;;6277709;22;20398;-84
2023/12/31 02:07:14;;;;;;;2.47;1.27;;;9.40;99.90;;;;;;6277465;22;20372;-84
2023/12/31 02:09:39;;;;;;;2.53;1.90;;;9.40;8.60;;;;;;6251143;22;20890;-84
2023/12/31 02:12:06;;;;;;;2.80;1.50;;;9.40;1.00;;;;;;6278065;22;20153;-84
2023/12/31 02:14:32;;;;;;;1.83;1.37;;;9.40;39.70;;;;;;6277656;22;20636;-85
2023/12/31 02:16:57;;;;;;;1.53;1.13;;;9.40;34.50;;;;;;6278024;22;20380;-84
2023/12/31 02:19:23;;;;;;;3.20;1.83;;;9.40;99.90;;;;;;6277813;22;20204;-85
2023/12/31 02:21:49;;;;;;;4.00;1.57;;;9.40;90.10;;;;;;6252048;22;20156;-84
2023/12/31 02:24:18;;;;;;;1.37;1.10;;;9.30;99.90;;;;;;6277444;22;20392;-84
2023/12/31 02:26:43;;;;;;;2.50;1.27;;;9.40;99.90;;;;;;6279228;22;20171;-85
2023/12/31 02:29:09;;;;;;;2.00;1.50;;;9.30;99.90;;;;;;6278677;22;20376;-84
2023/12/31 02:31:35;;;;;;;2.23;1.40;;;9.30;99.90;;;;;;6279816;22;20145;-84
2023/12/31 02:34:01;;;;;;;2.07;1.57;;;9.30;99.90;;;;;;6281437;22;20172;-86
2023/12/31 02:36:26;;;;;;;3.17;1.50;;;9.30;1.00;;;;;;6281843;22;20383;-87
2023/12/31 02:38:52;;;;;;;2.00;1.23;;;9.30;1.00;;;;;;6282815;22;20181;-85
2023/12/31 02:41:17;;;;;;;2.53;1.30;;;9.30;1.00;;;;;;6257190;22;20157;-85
2023/12/31 02:43:44;;;;;;;2.87;1.43;;;9.30;1.00;;;;;;6283978;22;20168;-86
2023/12/31 02:46:10;;;;;;;2.90;1.13;;;9.20;1.00;;;;;;6284268;22;20151;-84
2023/12/31 02:48:35;;;;;;;3.10;1.50;;;9.20;1.00;;;;;;6257703;22;20918;-86
2023/12/31 02:51:01;;;;;;;3.97;1.73;;;9.20;1.00;;;;;;6282344;22;20164;-85
2023/12/31 02:53:26;;;;;;;5.80;1.50;;;9.20;1.00;;;;;;6282012;22;20176;-84
2023/12/31 02:55:52;;;;;;;3.10;1.30;;;9.20;1.00;;;;;;6281578;22;20489;-85
2023/12/31 02:58:17;;;;;;;3.97;1.50;;;9.10;99.90;;;;;;6281357;22;20203;-85
2023/12/31 03:00:43;;;;;;;2.40;1.53;;;9.20;99.90;;;;;;6281449;22;20153;-84
2023/12/31 03:03:09;;;;;;;2.10;1.80;;;9.10;1.00;;;;;;6279841;22;20430;-84
2023/12/31 03:05:34;;;;;;;3.97;2.53;;;9.20;99.90;;;;;;6282528;22;20149;-85
2023/12/31 03:08:00;;;;;;;4.43;2.00;;;9.20;99.90;;;;;;6280261;22;20160;-84
2023/12/31 03:10:27;;;;;;;4.60;1.87;;;9.20;88.50;;;;;;6281210;22;20264;-86
2023/12/31 03:12:53;;;;;;;2.60;1.80;;;9.20;99.90;;;;;;6284362;22;20426;-84
2023/12/31 03:15:21;;;;;;;4.80;1.60;;;9.10;1.00;;;;;;6281271;22;20402;-84
2023/12/31 03:17:47;;;;;;;4.33;2.37;;;9.10;1.00;;;;;;6282546;22;20184;-85
2023/12/31 03:20:12;;;;;;;3.03;1.97;;;9.10;99.90;;;;;;6279639;22;20384;-84
2023/12/31 03:22:38;;;;;;;3.23;1.47;;;9.10;99.90;;;;;;6282259;22;20234;-85
2023/12/31 03:25:04;;;;;;;13.70;2.50;;;9.10;99.90;;;;;;6282218;22;20153;-85
2023/12/31 03:27:30;;;;;;;4.47;2.57;;;9.10;1.00;;;;;;6282717;22;20157;-84
2023/12/31 03:29:55;;;;;;;3.83;1.93;;;9.10;1.00;;;;;;6282405;22;20463;-85
2023/12/31 03:32:21;;;;;;;4.10;2.40;;;9.10;99.90;;;;;;6281405;22;20160;-85
2023/12/31 03:34:46;;;;;;;3.13;2.40;;;9.10;99.90;;;;;;6280093;22;20156;-85
2023/12/31 03:37:12;;;;;;;5.03;2.67;;;9.10;1.00;;;;;;6280346;22;20200;-84
2023/12/31 03:39:37;;;;;;;4.50;2.73;;;9.20;1.00;;;;;;6282089;22;20237;-86
2023/12/31 03:42:03;;;;;;;3.87;2.73;;;9.20;1.00;;;;;;6280964;22;20160;-85
2023/12/31 03:44:29;;;;;;;4.00;2.77;;;9.20;1.00;;;;;;6282117;22;20220;-85
2023/12/31 03:46:54;;;;;;;2.93;2.20;;;9.20;1.00;;;;;;6282790;22;20171;-85
2023/12/31 03:49:20;;;;;;;3.73;2.43;;;9.20;1.00;;;;;;6281437;22;20145;-85
2023/12/31 03:51:45;;;;;;;3.83;3.33;;;9.20;8.10;;;;;;6280865;22;20179;-85
2023/12/31 03:54:11;;;;;;;3.47;2.83;;;9.20;24.60;;;;;;6281204;22;20172;-84
2023/12/31 03:56:36;;;;;;;3.27;2.90;;;9.20;80.60;;;;;;6280499;22;20153;-86
2023/12/31 03:59:02;;;;;;;5.50;3.17;;;9.20;99.90;;;;;;6281663;22;20212;-84
2023/12/31 04:01:28;;;;;;;4.00;2.93;;;9.20;99.90;;;;;;6283750;22;20149;-84
2023/12/31 04:03:53;;;;;;;5.40;3.50;;;9.20;99.90;;;;;;6282931;22;20235;-84
2023/12/31 04:06:19;;;;;;;5.93;3.33;;;9.20;99.90;;;;;;6283062;22;20376;-87
2023/12/31 04:08:45;;;;;;;4.73;3.33;;;9.20;99.90;;;;;;6279501;22;20232;-85
2023/12/31 04:11:11;;;;;;;4.73;3.50;;;9.20;99.90;;;;;;6283474;22;20701;-86
2023/12/31 04:13:39;;;;;;;3.97;3.10;;;9.20;99.90;;;;;;6280974;22;20486;-82
2023/12/31 04:16:08;;;;;;;4.77;3.17;;;9.20;99.90;;;;;;6280915;22;20206;-82
2023/12/31 04:18:34;;;;;;;4.03;3.50;;;9.20;99.90;;;;;;6282591;22;20446;-82
2023/12/31 04:20:59;;;;;;;6.00;3.37;;;9.10;99.90;;;;;;6282242;22;20411;-81
2023/12/31 04:23:25;;;;;;;3.80;3.37;;;9.10;99.90;;;;;;6279263;22;20874;-81
2023/12/31 04:25:50;;;;;;;5.90;4.50;;;9.10;99.90;;;;;;6278260;22;20145;-80
2023/12/31 04:28:16;;;;;;;3.57;3.23;;;9.10;99.90;;;;;;6279083;22;20152;-80
2023/12/31 04:30:41;;;;;;;4.30;3.67;;;9.10;99.90;;;;;;6302689;22;20235;-80
2023/12/31 04:33:07;;;;;;;3.33;3.03;;;9.10;99.90;;;;;;6278554;22;20196;-81
2023/12/31 04:35:32;;;;;;;6.80;4.33;;;9.10;99.90;;;;;;6277949;22;20149;-80
2023/12/31 04:37:58;;;;;;;5.27;3.87;;;9.00;99.90;;;;;;6279014;22;20188;-80
2023/12/31 04:40:23;;;;;;;5.17;3.87;;;9.00;99.90;;;;;;6278180;22;20527;-80
2023/12/31 04:42:49;;;;;;;5.50;4.27;;;9.00;99.90;;;;;;6278890;22;20153;-82
2023/12/31 04:45:14;;;;;;;4.87;3.70;;;9.00;99.90;;;;;;6279616;22;20152;-80
2023/12/31 04:47:40;;;;;;;4.37;3.97;;;9.00;99.90;;;;;;6278239;22;20164;-81
2023/12/31 04:50:06;;;;;;;6.73;3.80;;;9.00;99.90;;;;;;6276303;22;20195;-81
2023/12/31 04:52:32;;;;;;;5.60;3.50;;;9.00;99.90;;;;;;6277723;22;20658;-79
2023/12/31 04:54:57;;;;;;;4.97;3.37;;;9.00;99.90;;;;;;6278965;22;20979;-80
2023/12/31 04:57:23;;;;;;;4.43;3.50;;;9.00;99.90;;;;;;6279395;22;20177;-81
2023/12/31 04:59:49;;;;;;;6.13;3.37;;;9.10;99.90;;;;;;6279178;22;20149;-81
2023/12/31 05:02:14;;;;;;;6.00;3.00;;;9.10;99.90;;;;;;6280576;22;20425;-81
2023/12/31 05:04:40;;;;;;;4.13;3.30;;;9.10;99.90;;;;;;6277831;22;20173;-81
2023/12/31 05:07:08;;;;;;;6.87;3.60;;;9.10;99.90;;;;;;6278664;22;20156;-81
2023/12/31 05:09:33;;;;;;;3.53;2.93;;;9.10;99.90;;;;;;6281369;22;20709;-82
2023/12/31 05:11:59;;;;;;;4.83;3.63;;;9.10;99.90;;;;;;6282552;22;20376;-81
2023/12/31 05:14:24;;;;;;;5.40;3.70;;;9.10;99.90;;;;;;6282070;22;20188;-82
2023/12/31 05:16:50;;;;;;;4.20;3.70;;;9.00;99.90;;;;;;6282004;22;20149;-80
2023/12/31 05:19:15;;;;;;;6.50;3.30;;;9.00;99.90;;;;;;6281470;22;20197;-82
2023/12/31 05:21:41;;;;;;;4.87;3.83;;;8.90;99.90;;;;;;6279823;22;20153;-80
2023/12/31 05:24:06;;;;;;;6.23;3.53;;;8.90;99.90;;;;;;6280929;22;20508;-81
2023/12/31 05:26:32;;;;;;;7.00;3.63;;;8.90;99.90;;;;;;6282147;22;20145;-83
2023/12/31 05:28:57;;;;;;;4.90;3.73;;;8.90;99.90;;;;;;6280729;22;20475;-81
2023/12/31 05:31:23;;;;;;;6.43;3.60;;;8.90;99.90;;;;;;6280366;22;20153;-81
2023/12/31 05:33:48;;;;;;;5.10;3.67;;;8.80;99.90;;;;;;6282280;22;20625;-80
2023/12/31 05:36:14;;;;;;;6.37;3.50;;;8.80;99.90;;;;;;6281185;22;20553;-81
2023/12/31 05:38:39;;;;;;;12.00;7.73;;;8.80;99.90;;;;;;6279618;22;20184;-80
2023/12/31 05:41:05;;;;;;;14.17;7.23;;;8.80;99.90;;;;;;6279736;22;20145;-81
2023/12/31 05:43:30;;;;;;;10.97;6.13;;;8.80;99.90;;;;;;6280767;22;20239;-79
2023/12/31 05:45:56;;;;;;;4.90;3.73;;;8.80;99.90;;;;;;6280582;22;20638;-82
2023/12/31 05:48:21;;;;;;;17.33;9.43;;;8.90;99.90;;;;;;6281061;22;20153;-81
2023/12/31 05:50:47;;;;;;;11.60;5.60;;;8.90;99.90;;;;;;6281157;22;20184;-81
2023/12/31 05:53:13;;;;;;;24.80;12.20;;;8.90;99.90;;;;;;6281312;22;20258;-79
2023/12/31 05:55:38;;;;;;;37.07;17.20;;;8.90;99.90;;;;;;6275572;22;20206;-81
2023/12/31 05:58:04;;;;;;;5.30;3.87;;;9.00;99.90;;;;;;6274396;22;20177;-81
2023/12/31 06:00:30;;;;;;;6.63;5.43;;;9.00;99.90;;;;;;6275745;22;20149;-81
2023/12/31 06:02:55;;;;;;;7.13;4.77;;;9.00;99.90;;;;;;6273568;22;20188;-80
2023/12/31 06:05:21;;;;;;;5.30;4.30;;;9.00;99.90;;;;;;6247854;22;20156;-80
2023/12/31 06:07:47;;;;;;;5.40;4.50;;;9.00;99.90;;;;;;6275449;22;20148;-81
2023/12/31 06:10:13;;;;;;;6.27;3.90;;;9.00;99.90;;;;;;6273906;22;20392;-80
2023/12/31 06:12:39;;;;;;;8.00;4.40;;;9.00;99.90;;;;;;6275529;22;20627;-80
2023/12/31 06:15:09;;;;;;;4.57;4.10;;;9.00;99.90;;;;;;6268281;22;20415;-81
2023/12/31 06:17:35;;;;;;;4.83;4.23;;;9.00;99.90;;;;;;6275185;22;20177;-80
2023/12/31 06:20:02;;;;;;;9.13;5.80;;;9.10;99.90;;;;;;6273676;22;20712;-80
2023/12/31 06:22:27;;;;;;;9.37;7.10;;;9.10;99.90;;;;;;6274006;22;20377;-81
2023/12/31 06:24:53;;;;;;;7.47;4.67;;;9.10;99.90;;;;;;6273492;22;20395;-81
2023/12/31 06:27:18;;;;;;;7.80;5.07;;;9.10;99.90;;;;;;6274790;22;20157;-80
2023/12/31 06:29:44;;;;;;;5.70;3.77;;;9.10;99.90;;;;;;6272774;22;20163;-80
2023/12/31 06:32:09;;;;;;;10.83;8.57;;;9.10;99.90;;;;;;6273500;22;20176;-80
2023/12/31 06:34:35;;;;;;;8.27;6.50;;;9.10;99.90;;;;;;6273374;22;20644;-79
2023/12/31 06:37:00;;;;;;;7.93;6.40;;;9.10;99.90;;;;;;6272510;22;20164;-81
2023/12/31 06:39:26;;;;;;;7.33;6.57;;;9.20;99.90;;;;;;6274951;22;20160;-80
2023/12/31 06:41:52;;;;;;;7.10;5.00;;;9.20;99.90;;;;;;6280971;22;20160;-79
2023/12/31 06:44:17;;;;;;;6.50;4.90;;;9.20;99.90;;;;;;6282136;22;20230;-82
2023/12/31 06:46:43;;;;;;;4.43;3.40;;;9.20;99.90;;;;;;6282294;22;20536;-82
2023/12/31 06:49:08;;;;;;;6.30;4.13;;;9.20;99.90;;;;;;6279236;22;20149;-81
2023/12/31 06:51:34;;;;;;;4.70;3.60;;;9.20;99.90;;;;;;6280590;22;20165;-81
2023/12/31 06:53:59;;;;;;;7.90;6.17;;;9.20;99.90;;;;;;6279014;22;20227;-82
2023/12/31 06:56:25;;;;;;;5.20;4.70;;;9.10;99.90;;;;;;6281212;22;20153;-81
2023/12/31 06:58:50;;;;;;;6.00;4.60;;;9.10;99.90;;;;;;6281357;22;20176;-81
2023/12/31 07:01:16;;;;;;;8.60;5.37;;;9.10;99.90;;;;;;6279215;22;20601;-82
2023/12/31 07:03:43;;;;;;;5.77;4.83;;;9.10;99.90;;;;;;6281048;22;20164;-82
2023/12/31 07:06:08;;;;;;;5.60;4.07;;;9.10;99.90;;;;;;6279034;22;20433;-81
2023/12/31 07:08:34;;;;;;;5.37;4.87;;;9.10;99.90;;;;;;6279180;22;20380;-81
2023/12/31 07:11:00;;;;;;;4.20;3.47;;;9.10;99.90;;;;;;6278180;22;20690;-81
2023/12/31 07:13:25;;;;;;;5.10;4.00;;;9.10;99.90;;;;;;6280606;22;20243;-82
2023/12/31 07:15:51;;;;;;;4.03;3.63;;;9.10;99.90;;;;;;6281272;22;20147;-81
2023/12/31 07:18:16;;;;;;;4.60;3.53;;;9.30;99.90;;;;;;6279520;22;20637;-81
2023/12/31 07:20:42;;;;;;;5.00;3.83;;;9.40;99.90;;;;;;6253965;22;20153;-82
2023/12/31 07:23:07;;;;;;;5.97;3.63;;;9.50;97.20;;;;;;6279024;22;20169;-80
2023/12/31 07:25:33;;;;;;;4.30;3.80;;;9.60;1.00;;;;;;6279179;22;20597;-82
2023/12/31 07:27:59;;;;;;;4.47;3.33;;;9.70;1.00;;;;;;6277596;22;20149;-79
2023/12/31 07:30:25;;;;;;;6.13;3.17;;;9.70;1.00;;;;;;6275123;22;20202;-79
2023/12/31 07:32:51;;;;;;;3.83;3.43;;;9.80;99.90;;;;;;6275549;22;20376;-79
2023/12/31 07:35:17;;;;;;;7.23;3.53;;;9.90;99.90;;;;;;6275747;22;20394;-80
2023/12/31 07:37:43;;;;;;;5.57;3.97;;;9.90;26.50;;;;;;6277618;22;20415;-80
2023/12/31 07:40:10;;;;;;;7.60;3.47;;;10.10;1.00;;;;;;6277134;22;20376;-80
2023/12/31 07:42:37;;;;;;;7.00;5.60;;;10.10;99.90;;;;;;6280246;22;20149;-81
2023/12/31 07:45:04;;;;;;;7.90;5.87;;;10.20;1.00;;;;;;6278598;22;20392;-80
2023/12/31 07:47:31;;;;;;;5.07;4.40;;;10.20;1.00;;;;;;6278022;22;20454;-81
2023/12/31 07:49:57;;;;;;;6.70;6.00;;;10.20;99.90;;;;;;6278131;22;20371;-80
2023/12/31 07:52:25;;;;;;;8.87;5.83;;;10.30;1.00;;;;;;6251573;22;20867;-80
2023/12/31 07:54:50;;;;;;;6.47;5.20;;;10.30;1.00;;;;;;6282350;22;20254;-80
2023/12/31 07:57:16;;;;;;;4.43;4.03;;;10.30;1.00;;;;;;6285776;22;20419;-81
2023/12/31 07:59:41;;;;;;;6.33;4.87;;;10.30;1.00;;;;;;6285718;22;20611;-80
2023/12/31 08:02:07;;;;;;;6.33;5.50;;;10.30;99.90;;;;;;6257236;22;20149;-80
2023/12/31 08:04:32;;;;;;;5.73;4.67;;;10.40;34.80;;;;;;6284805;22;20624;-81
2023/12/31 08:06:58;;;;;;;5.67;3.70;;;10.40;1.00;;;;;;6281913;22;20149;-81
2023/12/31 08:09:23;;;;;;;5.10;3.80;;;10.40;1.00;;;;;;6282509;22;20224;-81
2023/12/31 08:11:49;;;;;;;4.17;3.20;;;10.40;1.00;;;;;;6256168;22;20184;-80
2023/12/31 08:14:14;;;;;;;5.40;3.40;;;10.40;1.00;;;;;;6282452;22;20188;-81
2023/12/31 08:16:40;;;;;;;3.40;2.93;;;10.50;99.90;;;;;;6282476;22;20149;-81
2023/12/31 08:19:05;;;;;;;3.60;3.00;;;10.50;99.90;;;;;;6281712;22;20182;-81
2023/12/31 08:21:31;;;;;;;4.33;3.93;;;10.50;99.90;;;;;;6280505;22;20149;-81
2023/12/31 08:23:57;;;;;;;2.93;2.60;;;10.50;1.00;;;;;;6281589;22;20175;-81
2023/12/31 08:26:22;;;;;;;3.40;3.07;;;10.50;1.00;;;;;;6255052;22;20156;-81
2023/12/31 08:28:48;;;;;;;4.27;2.80;;;10.60;1.00;;;;;;6282923;22;20153;-81
2023/12/31 08:31:15;;;;;;;3.13;2.33;;;10.60;1.00;;;;;;6283267;22;20561;-81
2023/12/31 08:33:41;;;;;;;4.90;3.20;;;10.60;1.00;;;;;;6254572;22;20656;-81
2023/12/31 08:36:07;;;;;;;4.87;3.87;;;10.70;1.00;;;;;;6282481;22;20418;-81
2023/12/31 08:38:33;;;;;;;4.80;3.00;;;10.70;99.90;;;;;;6281258;22;20415;-81
2023/12/31 08:40:59;;;;;;;7.77;3.20;;;10.80;99.90;;;;;;6282506;22;20473;-81
2023/12/31 08:43:24;;;;;;;4.30;3.57;;;10.90;81.60;;;;;;6254224;22;20710;-80
2023/12/31 08:45:51;;;;;;;4.13;2.73;;;10.90;1.00;;;;;;6281587;22;20439;-81
2023/12/31 08:48:17;;;;;;;4.13;3.17;;;11.00;1.00;;;;;;6282037;22;20228;-80
2023/12/31 08:50:44;;;;;;;3.50;2.90;;;11.00;1.00;;;;;;6281265;22;20368;-81
2023/12/31 08:53:09;;;;;;;4.73;3.17;;;11.00;1.00;;;;;;6282426;22;20399;-80
2023/12/31 08:55:35;;;;;;;4.20;3.47;;;11.00;1.00;;;;;;6279658;22;20382;-80
2023/12/31 08:58:00;;;;;;;5.37;4.27;;;11.00;1.00;;;;;;6281784;22;20180;-80
2023/12/31 09:00:26;;;;;;;3.60;3.13;;;10.90;1.00;;;;;;6281573;22;20144;-81
2023/12/31 09:02:51;;;;;;;4.10;3.27;;;10.90;1.00;;;;;;6281920;22;20145;-80
2023/12/31 09:05:17;;;;;;;3.17;2.87;;;11.00;1.00;;;;;;6253976;22;20153;-81
2023/12/31 09:07:42;;;;;;;4.10;2.97;;;11.00;1.00;;;;;;6281548;22;20153;-81
2023/12/31 09:10:08;;;;;;;3.93;3.13;;;11.00;1.00;;;;;;6277129;22;20164;-82
2023/12/31 09:12:34;;;;;;;4.47;3.60;;;11.00;1.00;;;;;;6254816;22;20516;-80
2023/12/31 09:15:00;;;;;;;2.60;2.40;;;11.00;1.00;;;;;;6273209;22;20445;-81
2023/12/31 09:17:25;;;;;;;3.70;2.80;;;11.10;99.90;;;;;;6280114;22;20960;-81
2023/12/31 09:19:53;;;;;;;3.50;2.63;;;11.20;99.90;;;;;;6278976;22;20189;-81
2023/12/31 09:22:19;;;;;;;3.33;2.67;;;11.20;99.90;;;;;;6279993;22;20153;-80
2023/12/31 09:24:45;;;;;;;4.80;2.63;;;11.30;99.90;;;;;;6280647;22;20419;-82
2023/12/31 09:27:11;;;;;;;3.03;2.50;;;11.40;1.00;;;;;;6277604;22;20149;-80
2023/12/31 09:29:36;;;;;;;3.30;2.30;;;11.40;99.90;;;;;;6280020;22;20443;-79
2023/12/31 09:32:03;;;;;;;5.13;3.00;;;11.40;99.90;;;;;;6279753;22;20239;-82
2023/12/31 09:34:28;;;;;;;3.73;2.57;;;11.40;1.00;;;;;;6279257;22;20222;-80
2023/12/31 09:36:54;;;;;;;2.90;2.20;;;11.40;99.90;;;;;;6279599;22;20379;-81
2023/12/31 09:39:19;;;;;;;2.30;1.57;;;11.50;99.90;;;;;;6280499;22;20176;-82
2023/12/31 09:41:49;;;;;;;1.77;1.30;;;11.60;1.00;;;;;;6279657;22;20232;-81
2023/12/31 09:44:18;;;;;;;1.90;1.40;;;11.60;99.90;;;;;;6279195;22;20687;-79
2023/12/31 09:47:05;;;;;;;2.73;1.40;;;11.60;99.90;;;;;;6281764;22;20371;-81
2023/12/31 09:49:34;;;;;;;1.50;1.30;;;11.70;99.90;;;;;;6280610;22;20360;-81
2023/12/31 09:52:02;;;;;;;3.77;1.60;;;11.80;99.90;;;;;;6280191;22;20372;-82
2023/12/31 09:54:29;;;;;;;1.63;1.50;;;11.90;99.90;;;;;;6281043;22;20533;-80
2023/12/31 09:56:56;;;;;;;1.70;1.10;;;11.90;99.90;;;;;;6279782;22;20403;-80
2023/12/31 09:59:24;;;;;;;2.63;0.90;;;11.90;99.90;;;;;;6279248;22;20398;-81
2023/12/31 10:01:53;;;;;;;1.63;1.30;;;11.80;14.00;;;;;;6281796;22;20376;-80
2023/12/31 10:04:19;;;;;;;1.70;1.10;;;11.80;8.10;;;;;;6281034;22;20478;-81
2023/12/31 10:06:45;;;;;;;1.57;1.10;;;11.80;1.70;;;;;;6280583;22;20394;-80
2023/12/31 10:09:15;;;;;;;2.30;1.20;;;11.70;21.30;;;;;;6279711;22;20403;-80
2023/12/31 10:11:41;;;;;;;1.97;1.10;;;11.70;23.70;;;;;;6279471;22;20425;-80
2023/12/31 10:14:07;;;;;;;2.93;1.00;;;11.70;99.90;;;;;;6280812;22;20423;-81
2023/12/31 10:16:34;;;;;;;1.50;1.13;;;11.70;99.90;;;;;;6280012;22;20444;-82
2023/12/31 10:19:00;;;;;;;1.47;1.07;;;11.70;91.00;;;;;;6253329;22;20204;-82
2023/12/31 10:21:26;;;;;;;2.00;1.00;;;11.80;6.90;;;;;;6279829;22;20378;-81
2023/12/31 10:23:52;;;;;;;2.87;0.97;;;11.80;1.00;;;;;;6279636;22;20391;-80
2023/12/31 10:26:17;;;;;;;3.30;0.97;;;11.90;1.00;;;;;;6253635;22;20382;-81
2023/12/31 10:28:43;;;;;;;3.00;0.80;;;11.90;1.00;;;;;;6278922;22;20578;-81
2023/12/31 10:31:10;;;;;;;1.13;0.80;;;11.90;1.00;;;;;;6280343;22;20149;-80
2023/12/31 10:33:37;;;;;;;2.20;0.90;;;11.80;1.00;;;;;;6278001;22;20173;-80
2023/12/31 10:36:06;;;;;;;3.03;1.00;;;11.80;1.00;;;;;;6278930;22;20376;-82
2023/12/31 10:38:46;;;;;;;1.10;0.60;;;11.70;1.00;;;;;;6252179;22;20427;-81
2023/12/31 10:41:16;;;;;;;1.40;0.83;;;11.70;1.00;;;;;;6278190;22;20374;-80
2023/12/31 10:43:45;;;;;;;2.40;0.77;;;11.70;1.00;;;;;;6276086;22;20398;-79
2023/12/31 10:46:14;;;;;;;4.13;0.83;;;11.70;1.00;;;;;;6276611;22;20520;-80
2023/12/31 10:48:49;;;;;;;5.03;1.13;;;11.60;1.00;;;;;;6275816;22;20386;-81
2023/12/31 10:51:21;;;;;;;1.20;0.80;;;11.60;1.00;;;;;;6247011;22;20924;-77
2023/12/31 10:53:50;;;;;;;1.93;0.80;;;11.60;1.00;;;;;;6278572;22;20397;-80
2023/12/31 10:56:17;;;;;;;1.30;0.70;;;11.50;1.00;;;;;;6277147;22;20708;-81
2023/12/31 10:58:44;;;;;;;4.37;1.37;;;11.40;1.00;;;;;;6275401;22;20419;-78
2023/12/31 11:01:10;;;;;;;1.67;0.80;;;11.40;1.00;;;;;;6276557;22;20371;-81
2023/12/31 11:03:40;;;;;;;1.63;0.83;;;11.40;1.00;;;;;;6276513;22;20474;-80
2023/12/31 11:06:06;;;;;;;1.37;0.80;;;11.40;17.40;;;;;;6276552;22;20454;-80
2023/12/31 11:08:32;;;;;;;1.30;0.67;;;11.40;28.20;;;;;;6276590;22;20730;-79
2023/12/31 11:10:58;;;;;;;1.10;0.67;;;11.40;28.80;;;;;;6279133;22;20375;-81
2023/12/31 11:13:26;;;;;;;1.60;0.63;;;11.30;33.40;;;;;;6252435;22;20430;-80
2023/12/31 11:15:54;;;;;;;1.47;0.60;;;11.30;55.90;;;;;;6274345;22;20149;-81
2023/12/31 11:18:53;;;;;;;1.20;0.60;;;11.30;83.40;;;;;;6282644;22;20744;-80
2023/12/31 11:21:46;;;;;;;1.60;0.67;;;11.20;83.10;;;;;;6282577;22;20759;-79
2023/12/31 11:24:18;;;;;;;4.23;0.70;;;11.20;98.10;;;;;;6281366;22;20396;-81
2023/12/31 11:26:44;;;;;;;1.50;0.90;;;11.20;99.90;;;;;;6281158;22;20408;-81
2023/12/31 11:29:13;;;;;;;1.27;0.70;;;11.20;99.90;;;;;;6282619;22;20376;-81
2023/12/31 11:31:42;;;;;;;1.30;0.80;;;11.20;99.80;;;;;;6281864;22;20394;-80
2023/12/31 11:34:09;;;;;;;1.20;0.60;;;11.20;99.90;;;;;;6283499;22;20402;-81
2023/12/31 11:36:35;;;;;;;1.90;1.00;;;11.20;99.90;;;;;;6282395;22;20453;-81
2023/12/31 11:39:14;;;;;;;2.00;0.90;;;11.20;99.90;;;;;;6279476;22;20437;-81
2023/12/31 11:41:45;;;;;;;2.33;0.70;;;11.20;99.90;;;;;;6272341;22;20366;-79
2023/12/31 11:44:30;;;;;;;1.70;0.63;;;11.10;99.90;;;;;;6281329;22;20387;-81
2023/12/31 11:46:58;;;;;;;1.80;0.70;;;11.10;99.90;;;;;;6282621;22;20382;-81
2023/12/31 11:49:26;;;;;;;1.97;0.77;;;11.20;99.90;;;;;;6281691;22;20390;-80
2023/12/31 11:51:57;;;;;;;3.40;0.97;;;11.30;95.50;;;;;;6282620;22;20440;-81
2023/12/31 11:54:24;;;;;;;1.97;0.70;;;11.40;39.00;;;;;;6280290;22;20487;-80
2023/12/31 11:56:53;;;;;;;1.93;0.70;;;11.60;40.60;;;;;;6281781;22;20383;-80
2023/12/31 11:59:18;;;;;;;1.67;0.73;;;11.70;1.00;;;;;;6276508;22;20431;-81
2023/12/31 12:01:44;;;;;;;1.70;0.70;;;11.80;1.00;;;;;;6280789;22;20375;-82
2023/12/31 12:04:12;;;;;;;1.10;0.57;;;11.90;1.00;;;;;;6276112;22;20173;-81
2023/12/31 12:06:39;;;;;;;2.40;0.80;;;12.00;1.00;;;;;;6275915;22;20160;-79
2023/12/31 12:09:05;;;;;;;2.90;1.00;;;12.80;1.00;;;;;;6274630;22;20799;-79
2023/12/31 12:11:32;;;;;;;1.67;0.90;;;13.70;1.00;;;;;;6275798;22;20411;-81
2023/12/31 12:13:58;;;;;;;1.57;0.60;;;13.90;1.00;;;;;;6277230;22;20415;-80
2023/12/31 12:16:27;;;;;;;1.40;0.60;;;13.70;1.00;;;;;;6275340;22;20391;-81
2023/12/31 12:19:05;;;;;;;3.60;1.20;;;13.30;1.00;;;;;;6276705;22;20477;-80
2023/12/31 12:21:31;;;;;;;5.00;1.33;;;12.90;1.00;;;;;;6277723;22;20372;-81
2023/12/31 12:23:56;;;;;;;3.00;0.97;;;12.40;1.00;;;;;;6249607;22;20445;-80
2023/12/31 12:26:22;;;;;;;5.93;1.10;;;11.90;15.80;;;;;;6274518;22;20842;-81
2023/12/31 12:28:49;;;;;;;4.33;0.90;;;11.40;99.90;;;;;;6277017;22;20212;-82
2023/12/31 12:31:15;;;;;;;5.57;0.83;;;11.00;99.90;;;;;;6250523;22;20168;-81
2023/12/31 12:33:43;;;;;;;2.17;0.90;;;10.70;64.90;;;;;;6274769;22;20405;-80
2023/12/31 12:36:10;;;;;;;2.90;1.00;;;10.50;1.00;;;;;;6274226;22;20427;-81
2023/12/31 12:38:37;;;;;;;3.37;1.50;;;10.40;47.80;;;;;;6278388;22;20744;-81
2023/12/31 12:41:04;;;;;;;6.03;1.63;;;10.30;99.90;;;;;;6279184;22;20724;-81
2023/12/31 12:43:32;;;;;;;5.43;1.27;;;10.50;99.90;;;;;;6279260;22;20744;-79
2023/12/31 12:46:03;;;;;;;6.70;1.10;;;10.60;65.90;;;;;;6278587;22;20372;-81
2023/12/31 12:48:28;;;;;;;2.97;1.10;;;10.50;99.90;;;;;;6251553;22;20384;-81
2023/12/31 12:50:54;;;;;;;4.30;0.80;;;10.30;99.90;;;;;;6284135;22;20402;-82